createdAt,value
2022-07-29T00:00:57.950Z,23.98
2022-07-29T00:03:25.753Z,23.96
2022-07-29T00:05:54.348Z,23.92
2022-07-29T00:08:22.068Z,23.96
2022-07-29T00:10:51.525Z,23.94
2022-07-29T00:13:19.261Z,23.92
2022-07-29T00:18:14.205Z,24.14
2022-07-29T00:20:41.940Z,24.01
2022-07-29T00:23:09.648Z,23.96
2022-07-29T00:25:41.699Z,23.93
2022-07-29T00:28:09.529Z,23.91
2022-07-29T00:30:37.251Z,23.89
2022-07-29T00:33:09.030Z,23.86
2022-07-29T00:35:46.315Z,23.87
2022-07-29T00:38:14.502Z,23.84
2022-07-29T00:40:43.305Z,23.83
2022-07-29T00:43:11.938Z,23.66
2022-07-29T00:45:39.663Z,23.81
2022-07-29T00:48:09.567Z,23.80
2022-07-29T00:50:38.878Z,23.81
2022-07-29T00:53:07.320Z,23.79
2022-07-29T00:55:35.055Z,23.77
2022-07-29T00:58:02.785Z,23.75
2022-07-29T01:00:30.854Z,23.64
2022-07-29T01:02:58.701Z,23.72
2022-07-29T01:05:48.484Z,23.73
2022-07-29T01:08:16.463Z,23.49
2022-07-29T01:10:44.185Z,23.71
2022-07-29T01:13:11.951Z,23.70
2022-07-29T01:15:49.303Z,23.70
2022-07-29T01:18:22.194Z,23.69
2022-07-29T01:21:17.374Z,23.50
2022-07-29T01:24:10.971Z,23.55
2022-07-29T01:26:44.347Z,23.66
2022-07-29T01:29:16.705Z,23.53
2022-07-29T01:31:59.008Z,23.65
2022-07-29T01:34:32.047Z,23.64
2022-07-29T01:37:04.205Z,23.27
2022-07-29T01:39:33.400Z,23.60
2022-07-29T01:42:03.973Z,23.33
2022-07-29T01:44:36.520Z,23.29
2022-07-29T01:47:07.579Z,23.60
2022-07-29T01:49:37.804Z,23.35
2022-07-29T01:52:08.809Z,23.57
2022-07-29T01:54:39.139Z,23.18
2022-07-29T01:57:07.173Z,23.55
2022-07-29T01:59:37.520Z,22.93
2022-07-29T02:02:05.663Z,23.54
2022-07-29T02:04:33.444Z,23.55
2022-07-29T02:07:03.694Z,23.53
2022-07-29T02:09:31.610Z,23.51
2022-07-29T02:11:59.340Z,23.51
2022-07-29T02:14:27.042Z,23.51
2022-07-29T02:16:56.695Z,23.44
2022-07-29T02:19:24.749Z,23.47
2022-07-29T02:21:53.583Z,23.48
2022-07-29T02:24:21.591Z,23.46
2022-07-29T02:26:49.322Z,23.24
2022-07-29T02:29:17.025Z,23.44
2022-07-29T02:31:45.269Z,23.45
2022-07-29T02:34:14.482Z,23.44
2022-07-29T02:36:49.524Z,23.41
2022-07-29T02:39:17.437Z,23.22
2022-07-29T02:41:46.727Z,22.88
2022-07-29T02:44:15.497Z,23.12
2022-07-29T02:46:45.910Z,23.39
2022-07-29T02:49:17.600Z,23.37
2022-07-29T02:51:46.221Z,23.37
2022-07-29T02:54:24.907Z,23.36
2022-07-29T02:56:54.714Z,23.35
2022-07-29T02:59:24.248Z,23.34
2022-07-29T03:01:52.066Z,23.33
2022-07-29T03:04:21.474Z,23.32
2022-07-29T03:06:49.496Z,23.31
2022-07-29T03:09:17.379Z,22.89
2022-07-29T03:11:49.301Z,23.30
2022-07-29T03:14:20.371Z,22.95
2022-07-29T03:16:48.672Z,23.27
2022-07-29T03:19:16.465Z,23.22
2022-07-29T03:21:45.585Z,23.26
2022-07-29T03:24:25.802Z,23.23
2022-07-29T03:26:53.534Z,23.21
2022-07-29T03:29:21.256Z,23.21
2022-07-29T03:31:49.280Z,23.21
2022-07-29T03:34:17.760Z,22.88
2022-07-29T03:36:48.134Z,23.20
2022-07-29T03:39:16.934Z,23.16
2022-07-29T03:41:44.676Z,23.17
2022-07-29T03:44:12.679Z,23.18
2022-07-29T03:46:40.620Z,23.16
2022-07-29T03:49:09.263Z,23.16
2022-07-29T03:51:37.175Z,23.15
2022-07-29T03:54:10.095Z,23.15
2022-07-29T03:56:40.536Z,22.77
2022-07-29T03:59:08.365Z,22.90
2022-07-29T04:01:36.346Z,23.12
2022-07-29T04:04:04.792Z,23.10
2022-07-29T04:06:40.049Z,23.11
2022-07-29T04:09:09.754Z,23.08
2022-07-29T04:11:59.183Z,23.09
2022-07-29T04:14:25.569Z,23.08
2022-07-29T04:16:53.970Z,23.08
2022-07-29T04:19:21.709Z,23.09
2022-07-29T04:21:49.444Z,23.07
2022-07-29T04:24:18.927Z,23.06
2022-07-29T04:26:47.491Z,23.05
2022-07-29T04:29:15.582Z,23.05
2022-07-29T04:31:43.475Z,23.04
2022-07-29T04:34:11.347Z,22.75
2022-07-29T04:36:39.091Z,23.03
2022-07-29T04:39:06.793Z,23.03
2022-07-29T04:41:35.887Z,23.03
2022-07-29T04:44:06.945Z,23.02
2022-07-29T04:46:35.281Z,23.03
2022-07-29T04:49:03.196Z,22.71
2022-07-29T04:51:31.026Z,23.01
2022-07-29T04:53:58.737Z,23.01
2022-07-29T04:56:26.489Z,23.01
2022-07-29T04:58:55.549Z,23.02
2022-07-29T05:01:23.321Z,23.01
2022-07-29T05:03:51.073Z,23.02
2022-07-29T05:06:18.843Z,23.01
2022-07-29T05:08:46.546Z,23.02
2022-07-29T05:11:18.115Z,23.02
2022-07-29T05:13:48.695Z,22.91
2022-07-29T05:16:18.124Z,23.02
2022-07-29T05:18:45.882Z,23.01
2022-07-29T05:21:13.824Z,23.02
2022-07-29T05:23:41.523Z,23.02
2022-07-29T05:26:09.253Z,23.00
2022-07-29T05:28:36.972Z,23.04
2022-07-29T05:31:04.732Z,23.05
2022-07-29T05:33:34.624Z,23.04
2022-07-29T05:36:06.497Z,23.03
2022-07-29T05:38:34.355Z,23.01
2022-07-29T05:41:02.197Z,22.76
2022-07-29T05:43:29.994Z,23.02
2022-07-29T05:45:57.843Z,22.99
2022-07-29T05:48:25.717Z,22.95
2022-07-29T05:50:54.814Z,22.89
2022-07-29T05:53:22.533Z,22.86
2022-07-29T05:55:50.274Z,22.85
2022-07-29T05:58:17.987Z,22.84
2022-07-29T06:00:45.809Z,22.85
2022-07-29T06:03:13.595Z,22.86
2022-07-29T06:05:41.332Z,22.88
2022-07-29T06:08:10.390Z,22.83
2022-07-29T06:10:38.155Z,22.89
2022-07-29T06:13:05.881Z,22.05
2022-07-29T06:15:34.425Z,22.86
2022-07-29T06:18:02.461Z,22.83
2022-07-29T06:20:31.272Z,22.63
2022-07-29T06:22:59.434Z,22.80
2022-07-29T06:25:30.294Z,22.79
2022-07-29T06:27:58.170Z,22.77
2022-07-29T06:30:26.007Z,22.78
2022-07-29T06:32:53.757Z,22.76
2022-07-29T06:35:42.120Z,22.76
2022-07-29T06:38:19.685Z,22.74
2022-07-29T06:41:08.644Z,22.76
2022-07-29T06:43:50.071Z,22.76
2022-07-29T06:46:21.114Z,22.69
2022-07-29T06:48:49.565Z,22.81
2022-07-29T06:51:22.943Z,22.81
2022-07-29T06:54:00.607Z,22.84
2022-07-29T06:56:38.992Z,22.83
2022-07-29T06:59:07.564Z,22.56
2022-07-29T07:01:35.343Z,22.82
2022-07-29T07:04:03.161Z,22.85
2022-07-29T07:06:30.975Z,22.88
2022-07-29T07:08:58.762Z,22.86
2022-07-29T07:11:26.502Z,22.91
2022-07-29T07:14:00.637Z,22.70
2022-07-29T07:16:30.701Z,22.93
2022-07-29T07:18:58.475Z,22.94
2022-07-29T07:21:26.223Z,22.97
2022-07-29T07:23:57.859Z,22.98
2022-07-29T07:26:26.146Z,22.98
2022-07-29T07:28:55.244Z,22.98
2022-07-29T07:31:23.077Z,22.97
2022-07-29T07:33:50.845Z,22.99
2022-07-29T07:36:18.617Z,22.99
2022-07-29T07:38:46.358Z,22.99
2022-07-29T07:41:14.108Z,23.01
2022-07-29T07:43:41.806Z,23.00
2022-07-29T07:46:10.987Z,23.01
2022-07-29T07:48:38.863Z,23.01
2022-07-29T07:51:06.650Z,23.03
2022-07-29T07:53:34.405Z,23.04
2022-07-29T07:56:11.467Z,23.04
2022-07-29T07:58:40.448Z,23.05
2022-07-29T08:01:08.432Z,23.04
2022-07-29T08:03:37.604Z,23.05
2022-07-29T08:06:05.507Z,23.04
2022-07-29T08:08:33.230Z,23.05
2022-07-29T08:11:06.925Z,23.05
2022-07-29T08:13:36.603Z,23.06
2022-07-29T08:16:12.585Z,23.04
2022-07-29T08:18:42.113Z,22.75
2022-07-29T08:21:09.844Z,23.07
2022-07-29T08:23:47.161Z,22.63
2022-07-29T08:26:15.452Z,23.08
2022-07-29T08:28:45.771Z,23.07
2022-07-29T08:31:13.905Z,23.02
2022-07-29T08:33:43.057Z,23.05
2022-07-29T08:36:10.848Z,23.06
2022-07-29T08:38:38.554Z,23.10
2022-07-29T08:41:06.287Z,23.12
2022-07-29T08:43:36.103Z,23.13
2022-07-29T08:46:03.888Z,23.13
2022-07-29T08:48:31.663Z,23.14
2022-07-29T08:51:00.744Z,23.13
2022-07-29T08:53:30.198Z,23.13
2022-07-29T08:55:58.098Z,23.15
2022-07-29T08:58:25.996Z,23.15
2022-07-29T09:00:55.590Z,22.77
2022-07-29T09:03:25.548Z,22.52
2022-07-29T09:05:53.381Z,23.16
2022-07-29T09:08:22.506Z,23.17
2022-07-29T09:10:50.276Z,23.16
2022-07-29T09:13:17.972Z,23.17
2022-07-29T09:15:45.937Z,23.17
2022-07-29T09:18:20.333Z,23.16
2022-07-29T09:21:16.458Z,23.16
2022-07-29T09:24:02.732Z,23.18
2022-07-29T09:26:31.365Z,23.16
2022-07-29T09:28:59.187Z,23.16
2022-07-29T09:31:34.872Z,23.14
2022-07-29T09:34:02.594Z,23.17
2022-07-29T09:36:30.473Z,23.16
2022-07-29T09:39:03.292Z,23.16
2022-07-29T09:41:31.045Z,23.16
2022-07-29T09:43:59.084Z,22.71
2022-07-29T09:46:27.106Z,22.91
2022-07-29T09:49:10.666Z,22.73
2022-07-29T09:51:38.898Z,23.13
2022-07-29T09:54:26.601Z,23.15
2022-07-29T09:56:55.160Z,23.17
2022-07-29T09:59:27.273Z,23.18
2022-07-29T10:01:55.511Z,23.20
2022-07-29T10:04:23.442Z,23.21
2022-07-29T10:07:03.901Z,22.68
2022-07-29T10:09:34.356Z,23.24
2022-07-29T10:12:10.055Z,23.27
2022-07-29T10:14:37.927Z,23.28
2022-07-29T10:17:06.337Z,23.30
2022-07-29T10:19:34.595Z,22.80
2022-07-29T10:22:03.811Z,23.29
2022-07-29T10:24:32.415Z,23.28
2022-07-29T10:27:02.677Z,22.79
2022-07-29T10:29:32.358Z,23.22
2022-07-29T10:32:22.758Z,23.29
2022-07-29T10:35:00.016Z,23.29
2022-07-29T10:37:36.184Z,22.77
2022-07-29T10:40:29.270Z,23.28
2022-07-29T10:42:58.315Z,23.27
2022-07-29T10:45:28.818Z,23.27
2022-07-29T10:48:05.470Z,23.27
2022-07-29T10:50:57.824Z,23.29
2022-07-29T10:53:25.531Z,23.28
2022-07-29T10:55:54.797Z,23.29
2022-07-29T10:58:25.246Z,22.91
2022-07-29T11:00:53.815Z,22.88
2022-07-29T11:03:53.691Z,23.36
2022-07-29T11:06:28.094Z,23.34
2022-07-29T11:09:16.926Z,23.37
2022-07-29T11:11:51.268Z,23.37
2022-07-29T11:14:26.451Z,23.39
2022-07-29T11:17:03.387Z,23.33
2022-07-29T11:19:34.394Z,23.40
2022-07-29T11:22:03.959Z,23.40
2022-07-29T11:24:34.900Z,23.42
2022-07-29T11:27:18.294Z,23.43
2022-07-29T11:29:53.979Z,23.43
2022-07-29T11:32:22.853Z,23.19
2022-07-29T11:34:51.710Z,23.43
2022-07-29T11:37:27.768Z,23.44
2022-07-29T11:40:26.191Z,23.46
2022-07-29T11:42:53.975Z,23.46
2022-07-29T11:45:43.289Z,23.48
2022-07-29T11:48:29.566Z,23.45
2022-07-29T11:51:00.373Z,23.49
2022-07-29T11:53:28.938Z,23.51
2022-07-29T11:56:00.063Z,23.06
2022-07-29T11:58:28.123Z,23.55
2022-07-29T12:00:57.209Z,23.56
2022-07-29T12:03:35.249Z,23.59
2022-07-29T12:06:04.437Z,23.61
2022-07-29T12:08:42.253Z,23.64
2022-07-29T12:11:17.415Z,23.17
2022-07-29T12:13:49.258Z,23.69
2022-07-29T12:16:27.988Z,23.73
2022-07-29T12:19:00.022Z,23.77
2022-07-29T12:21:28.917Z,23.80
2022-07-29T12:24:03.477Z,23.36
2022-07-29T12:26:36.842Z,23.84
2022-07-29T12:29:08.485Z,23.35
2022-07-29T12:31:44.078Z,23.93
2022-07-29T12:34:13.155Z,23.96
2022-07-29T12:36:41.016Z,23.99
2022-07-29T12:39:10.057Z,23.99
2022-07-29T12:41:37.926Z,24.00
2022-07-29T12:44:06.052Z,24.03
2022-07-29T12:46:33.827Z,24.05
2022-07-29T12:49:04.118Z,24.08
2022-07-29T12:51:32.289Z,24.12
2022-07-29T12:54:08.416Z,24.11
2022-07-29T12:56:44.819Z,24.11
2022-07-29T12:59:14.071Z,24.09
2022-07-29T13:01:41.790Z,24.14
2022-07-29T13:04:10.873Z,24.15
2022-07-29T13:06:39.980Z,23.83
2022-07-29T13:09:10.806Z,24.22
2022-07-29T13:11:42.178Z,24.25
2022-07-29T13:14:13.975Z,23.83
2022-07-29T13:17:03.068Z,24.31
2022-07-29T13:19:42.295Z,23.84
2022-07-29T13:22:10.257Z,23.80
2022-07-29T13:24:47.985Z,24.36
2022-07-29T13:27:16.229Z,24.37
2022-07-29T13:29:43.935Z,23.70
2022-07-29T13:32:13.847Z,23.97
2022-07-29T13:34:42.884Z,24.41
2022-07-29T13:37:10.689Z,24.43
2022-07-29T13:39:38.623Z,24.43
2022-07-29T13:42:10.527Z,24.45
2022-07-29T13:44:39.099Z,24.45
2022-07-29T13:47:07.124Z,24.47
2022-07-29T13:49:34.842Z,24.49
2022-07-29T13:52:04.297Z,24.49
2022-07-29T13:54:32.186Z,24.48
2022-07-29T13:56:59.906Z,24.46
2022-07-29T13:59:27.605Z,24.48
2022-07-29T14:01:55.477Z,24.45
2022-07-29T14:04:24.290Z,24.50
2022-07-29T14:06:52.076Z,24.46
2022-07-29T14:09:21.143Z,24.50
2022-07-29T14:11:50.653Z,24.50
2022-07-29T14:14:18.375Z,24.49
2022-07-29T14:16:47.880Z,24.50
2022-07-29T14:19:19.699Z,24.50
2022-07-29T14:21:47.419Z,24.50
2022-07-29T14:24:21.553Z,24.50
2022-07-29T14:26:52.163Z,24.51
2022-07-29T14:29:19.951Z,24.52
2022-07-29T14:31:47.723Z,24.52
2022-07-29T14:34:16.481Z,24.53
2022-07-29T14:36:44.217Z,24.57
2022-07-29T14:39:11.943Z,24.61
2022-07-29T14:41:39.655Z,24.65
2022-07-29T14:44:08.787Z,24.72
2022-07-29T14:46:36.486Z,24.78
2022-07-29T14:49:04.237Z,24.84
2022-07-29T14:51:34.700Z,24.89
2022-07-29T14:54:02.455Z,24.92
2022-07-29T14:56:46.719Z,24.89
2022-07-29T14:59:16.164Z,24.96
2022-07-29T15:01:43.937Z,24.92
2022-07-29T15:04:11.664Z,24.95
2022-07-29T15:06:39.819Z,24.96
2022-07-29T15:09:07.742Z,24.46
2022-07-29T15:11:38.358Z,24.92
2022-07-29T15:14:06.729Z,24.96
2022-07-29T15:16:37.387Z,24.52
2022-07-29T15:19:05.206Z,24.97
2022-07-29T15:21:32.906Z,24.99
2022-07-29T15:24:00.635Z,24.99
2022-07-29T15:26:28.358Z,25.00
2022-07-29T15:28:56.558Z,25.01
2022-07-29T15:31:24.371Z,24.44
2022-07-29T15:33:58.071Z,24.95
2022-07-29T15:36:50.972Z,24.96
2022-07-29T15:39:14.850Z,24.95
2022-07-29T15:41:42.547Z,24.93
2022-07-29T15:44:10.313Z,24.93
2022-07-29T15:46:55.844Z,24.93
2022-07-29T15:49:31.421Z,24.91
2022-07-29T15:52:17.072Z,24.62
2022-07-29T15:54:44.806Z,24.91
2022-07-29T15:57:12.866Z,24.90
2022-07-29T15:59:40.584Z,24.89
2022-07-29T16:02:08.694Z,24.90
2022-07-29T16:04:37.876Z,24.88
2022-07-29T16:07:05.615Z,24.87
2022-07-29T16:09:33.428Z,24.86
2022-07-29T16:12:01.126Z,24.87
2022-07-29T16:14:29.102Z,24.86
2022-07-29T16:16:57.202Z,24.86
2022-07-29T16:19:25.088Z,24.87
2022-07-29T16:21:58.154Z,24.86
2022-07-29T16:24:29.831Z,24.85
2022-07-29T16:26:57.839Z,24.85
2022-07-29T16:29:25.728Z,24.85
2022-07-29T16:31:54.040Z,24.84
2022-07-29T16:34:21.855Z,24.84
2022-07-29T16:36:49.547Z,24.83
2022-07-29T16:39:18.611Z,24.83
2022-07-29T16:41:46.308Z,24.82
2022-07-29T16:44:14.350Z,24.80
2022-07-29T16:46:44.652Z,24.79
2022-07-29T16:49:12.667Z,24.79
2022-07-29T16:51:47.754Z,24.74
2022-07-29T16:54:15.552Z,24.76
2022-07-29T16:56:44.615Z,24.76
2022-07-29T16:59:12.386Z,24.75
2022-07-29T17:01:40.145Z,24.74
2022-07-29T17:04:07.958Z,24.74
2022-07-29T17:06:35.902Z,24.33
2022-07-29T17:09:03.841Z,24.71
2022-07-29T17:11:51.941Z,24.71
2022-07-29T17:14:23.428Z,24.69
2022-07-29T17:17:02.573Z,24.23
2022-07-29T17:19:31.504Z,24.33
2022-07-29T17:22:08.904Z,24.67
2022-07-29T17:24:39.058Z,24.64
2022-07-29T17:27:08.636Z,24.63
2022-07-29T17:29:38.768Z,24.64
2022-07-29T17:32:07.764Z,24.62
2022-07-29T17:34:36.203Z,24.62
2022-07-29T17:37:04.097Z,24.61
2022-07-29T17:39:31.925Z,24.61
2022-07-29T17:41:59.625Z,24.60
2022-07-29T17:44:27.347Z,24.59
2022-07-29T17:46:56.700Z,24.60
2022-07-29T17:49:24.822Z,24.58
2022-07-29T17:51:53.865Z,24.57
2022-07-29T17:54:26.690Z,24.56
2022-07-29T17:56:54.470Z,24.56
2022-07-29T17:59:22.284Z,24.55
2022-07-29T18:01:50.007Z,24.54
2022-07-29T18:04:20.985Z,24.53
2022-07-29T18:06:48.716Z,24.53
2022-07-29T18:09:16.461Z,24.51
2022-07-29T18:11:44.391Z,24.51
2022-07-29T18:14:13.546Z,24.50
2022-07-29T18:19:09.007Z,24.49
2022-07-29T18:21:51.325Z,24.48
2022-07-29T18:24:22.572Z,24.47
2022-07-29T18:26:50.258Z,24.47
2022-07-29T18:29:17.973Z,24.46
2022-07-29T18:31:45.724Z,24.45
2022-07-29T18:34:13.464Z,24.45
2022-07-29T18:36:42.544Z,24.46
2022-07-29T18:39:10.279Z,24.43
2022-07-29T18:41:49.940Z,24.42
2022-07-29T18:44:18.928Z,24.41
2022-07-29T18:46:55.481Z,24.41
2022-07-29T18:49:23.351Z,24.40
2022-07-29T18:51:52.504Z,24.40
2022-07-29T18:54:20.267Z,24.40
2022-07-29T18:56:47.991Z,24.38
2022-07-29T18:59:19.649Z,24.37
2022-07-29T19:01:47.530Z,24.37
2022-07-29T19:04:15.471Z,24.36
2022-07-29T19:06:43.238Z,24.34
2022-07-29T19:09:12.350Z,24.35
2022-07-29T19:11:40.124Z,24.33
2022-07-29T19:14:08.118Z,24.29
2022-07-29T19:16:35.968Z,24.32
2022-07-29T19:19:03.743Z,24.30
2022-07-29T19:21:31.460Z,24.31
2022-07-29T19:24:00.053Z,24.29
2022-07-29T19:26:36.590Z,24.30
2022-07-29T19:29:04.540Z,24.29
2022-07-29T19:31:32.389Z,24.21
2022-07-29T19:34:00.221Z,24.28
2022-07-29T19:36:28.272Z,24.26
2022-07-29T19:38:56.038Z,24.25
2022-07-29T19:41:23.836Z,24.26
2022-07-29T19:43:53.342Z,24.19
2022-07-29T19:46:21.239Z,24.18
2022-07-29T19:48:49.118Z,23.98
2022-07-29T19:51:17.756Z,24.24
2022-07-29T19:53:45.520Z,24.22
2022-07-29T19:56:13.286Z,24.22
2022-07-29T19:58:41.225Z,24.22
2022-07-29T20:01:10.970Z,24.22
2022-07-29T20:03:39.809Z,24.20
2022-07-29T20:06:07.857Z,24.12
2022-07-29T20:08:35.721Z,24.19
2022-07-29T20:11:03.456Z,24.17
2022-07-29T20:13:33.179Z,24.17
2022-07-29T20:16:01.229Z,24.16
2022-07-29T20:18:30.404Z,24.16
2022-07-29T20:21:00.245Z,24.14
2022-07-29T20:23:27.989Z,24.14
2022-07-29T20:26:01.043Z,24.14
2022-07-29T20:28:28.760Z,23.97
2022-07-29T20:30:56.572Z,24.14
2022-07-29T20:33:24.468Z,24.13
2022-07-29T20:35:53.748Z,24.13
2022-07-29T20:38:21.483Z,24.09
2022-07-29T20:40:50.750Z,24.11
2022-07-29T20:43:18.519Z,24.08
2022-07-29T20:45:46.244Z,24.10
2022-07-29T20:48:13.959Z,24.10
2022-07-29T20:50:42.683Z,24.06
2022-07-29T20:53:11.965Z,24.09
2022-07-29T20:55:39.780Z,24.08
2022-07-29T20:58:07.499Z,24.07
2022-07-29T21:00:35.265Z,24.08
2022-07-29T21:03:03.022Z,24.05
2022-07-29T21:05:32.817Z,24.06
2022-07-29T21:08:00.630Z,24.08
2022-07-29T21:10:29.832Z,24.06
2022-07-29T21:12:57.577Z,24.05
2022-07-29T21:15:27.483Z,24.02
2022-07-29T21:18:00.604Z,24.03
2022-07-29T21:20:28.581Z,24.02
2022-07-29T21:22:56.478Z,24.02
2022-07-29T21:25:24.236Z,24.01
2022-07-29T21:28:10.819Z,24.02
2022-07-29T21:30:38.559Z,24.00
2022-07-29T21:33:06.377Z,23.99
2022-07-29T21:36:06.873Z,24.00
2022-07-29T21:38:21.976Z,23.93
2022-07-29T21:40:50.997Z,23.70
2022-07-29T21:43:20.116Z,23.98
2022-07-29T21:45:50.279Z,23.97
2022-07-29T21:48:18.464Z,23.98
2022-07-29T21:50:46.793Z,23.98
2022-07-29T21:53:15.708Z,23.96
2022-07-29T21:55:43.772Z,23.94
2022-07-29T21:58:12.281Z,23.94
2022-07-29T22:00:41.387Z,23.94
2022-07-29T22:03:09.186Z,23.93
2022-07-29T22:05:36.904Z,23.93
2022-07-29T22:08:04.820Z,23.93
2022-07-29T22:10:33.488Z,23.70
2022-07-29T22:13:01.928Z,23.65
2022-07-29T22:15:29.863Z,23.89
2022-07-29T22:17:59.044Z,23.87
2022-07-29T22:20:26.776Z,23.88
2022-07-29T22:22:54.793Z,23.87
2022-07-29T22:25:22.758Z,23.56
2022-07-29T22:27:50.458Z,23.86
2022-07-29T22:30:18.433Z,23.86
2022-07-29T22:32:46.347Z,23.86
2022-07-29T22:35:15.408Z,23.85
2022-07-29T22:37:43.150Z,23.83
2022-07-29T22:40:11.545Z,23.83
2022-07-29T22:42:40.761Z,23.83
2022-07-29T22:45:10.336Z,23.83
2022-07-29T22:47:46.162Z,23.79
2022-07-29T22:50:17.315Z,23.81
2022-07-29T22:52:45.190Z,23.80
2022-07-29T22:55:12.938Z,23.80
2022-07-29T22:57:40.635Z,23.79
2022-07-29T23:00:09.335Z,23.79
2022-07-29T23:02:37.349Z,23.78
2022-07-29T23:05:05.423Z,23.78
2022-07-29T23:07:35.768Z,23.77
2022-07-29T23:10:03.516Z,23.76
2022-07-29T23:12:31.224Z,23.76
2022-07-29T23:14:58.936Z,23.75
2022-07-29T23:17:26.628Z,23.75
2022-07-29T23:19:54.359Z,23.75
2022-07-29T23:22:22.087Z,23.74
2022-07-29T23:24:51.149Z,23.74
2022-07-29T23:27:18.847Z,23.74
2022-07-29T23:29:46.580Z,23.72
2022-07-29T23:32:14.271Z,23.72
2022-07-29T23:34:41.958Z,23.71
2022-07-29T23:37:09.686Z,23.70
2022-07-29T23:39:37.375Z,23.71
2022-07-29T23:42:06.637Z,23.66
2022-07-29T23:44:34.382Z,23.68
2022-07-29T23:47:02.663Z,23.69
2022-07-29T23:49:30.564Z,23.68
2022-07-29T23:51:58.278Z,23.67
2022-07-29T23:54:25.963Z,23.68
2022-07-29T23:56:53.679Z,23.67
2022-07-29T23:59:22.721Z,23.66
